Terminal Aerodrome Forecast
Issued by NWS Wakefield, VA

Home | Current Version | Previous Version | Text Only | Print | Product List | Glossary On
Versions: 1 2 3 4 5 6 7 8 9 10 11 12 13 14 15 16 17 18 19 20 21 22 23 24 25 26 27 28 29 30 31 32 33 34 35 36 37 38 39 40 41 42 43 44
469
FTUS41 KAKQ 241146 RRB
TAFSBY
TAF
KSBY 241146Z 2412/2512 32014G23KT P6SM OVC010
      TEMPO 2412/2415 3SM -RA BR OVC006
     FM241500 31015G24KT P6SM VCSH OVC012
     FM241800 31016G25KT P6SM VCSH OVC025
     FM242100 31015G24KT P6SM BKN040
     FM250100 31013G20KT P6SM SCT070
     FM250600 29008KT P6SM SKC=

USA.gov is the U.S. government's official web portal to all federal, state and local government web resources and services.